Time;durP1;ratioP1;P1;durP2;ratioP2;P2;SDS_P1;SDS_P2;PMS_P1;PMS_P2;Temp;Humidity;BMP_temperature;BMP_pressure;BME280_temperature;BME280_humidity;BME280_pressure;Samples;Min_cycle;Max_cycle;Signal;HPM_P1;HPM_P2
2021/03/14 00:00:16;;;;;;;5.13;1.45;;;5.60;87.80;;;;;;5075033;28;20136;-69
2021/03/14 00:02:41;;;;;;;11.38;1.48;;;5.50;88.30;;;;;;5075135;28;20086;-69
2021/03/14 00:05:07;;;;;;;5.97;1.58;;;5.60;87.70;;;;;;5074502;28;20037;-69
2021/03/14 00:07:34;;;;;;;9.30;1.50;;;5.60;87.10;;;;;;5074801;28;20052;-69
2021/03/14 00:09:59;;;;;;;12.82;1.60;;;5.60;88.00;;;;;;5074881;28;20045;-69
2021/03/14 00:12:25;;;;;;;8.98;2.03;;;5.50;88.30;;;;;;5075051;28;20438;-69
2021/03/14 00:14:51;;;;;;;13.23;1.55;;;5.50;89.30;;;;;;5074538;28;20495;-69
2021/03/14 00:17:16;;;;;;;13.02;1.92;;;5.50;88.80;;;;;;5074579;28;20043;-69
2021/03/14 00:19:42;;;;;;;12.82;2.60;;;5.60;87.90;;;;;;5075233;28;20045;-69
2021/03/14 00:22:08;;;;;;;15.25;2.85;;;5.60;89.30;;;;;;5056766;28;20044;-69
2021/03/14 00:24:33;;;;;;;11.52;1.90;;;5.50;90.40;;;;;;5056377;28;20102;-69
2021/03/14 00:26:59;;;;;;;14.93;2.33;;;5.40;91.20;;;;;;5074344;28;20479;-69
2021/03/14 00:29:25;;;;;;;15.38;2.40;;;5.40;91.90;;;;;;5074695;28;20087;-69
2021/03/14 00:31:51;;;;;;;21.85;4.32;;;5.40;92.20;;;;;;5074499;28;20064;-69
2021/03/14 00:34:16;;;;;;;17.85;2.83;;;5.50;92.40;;;;;;5074616;28;20085;-69
2021/03/14 00:36:42;;;;;;;23.52;3.35;;;5.60;92.40;;;;;;5073944;28;20126;-69
2021/03/14 00:39:08;;;;;;;23.08;3.47;;;5.70;92.30;;;;;;5074403;28;20102;-69
2021/03/14 00:41:33;;;;;;;19.33;3.28;;;5.70;92.20;;;;;;5074515;28;20456;-69
2021/03/14 00:43:59;;;;;;;18.83;2.67;;;5.70;92.30;;;;;;5074289;28;20434;-69
2021/03/14 00:46:29;;;;;;;11.45;2.53;;;5.80;92.00;;;;;;5073962;28;20036;-69
2021/03/14 00:48:55;;;;;;;22.23;2.72;;;5.80;91.90;;;;;;5056350;28;20404;-69
2021/03/14 00:51:20;;;;;;;10.02;3.28;;;5.80;91.90;;;;;;5056828;28;20037;-69
2021/03/14 00:53:46;;;;;;;15.93;2.70;;;5.80;91.90;;;;;;5073997;28;20045;-69
2021/03/14 00:56:12;;;;;;;16.98;3.67;;;5.70;91.90;;;;;;5074188;28;20072;-69
2021/03/14 00:58:38;;;;;;;14.27;3.75;;;5.80;91.60;;;;;;5074312;28;20064;-69
2021/03/14 01:01:03;;;;;;;11.05;2.40;;;5.80;91.60;;;;;;5074366;28;20517;-69
2021/03/14 01:03:29;;;;;;;17.85;3.33;;;5.80;91.60;;;;;;5074416;28;20087;-69
2021/03/14 01:05:54;;;;;;;14.43;2.53;;;5.80;91.50;;;;;;5073587;28;20036;-69
2021/03/14 01:08:22;;;;;;;10.68;2.35;;;5.80;91.40;;;;;;5074038;28;20048;-69
2021/03/14 01:10:47;;;;;;;18.45;4.47;;;5.80;91.50;;;;;;5073572;28;20479;-69
2021/03/14 01:13:13;;;;;;;18.10;3.20;;;5.90;91.30;;;;;;5073626;28;20086;-69
2021/03/14 01:15:39;;;;;;;14.60;2.42;;;5.80;91.60;;;;;;5073236;28;20075;-69
2021/03/14 01:18:05;;;;;;;19.23;3.33;;;5.80;91.60;;;;;;5073567;28;20064;-69
2021/03/14 01:20:31;;;;;;;22.27;3.28;;;5.80;91.50;;;;;;5073709;28;20048;-69
2021/03/14 01:22:57;;;;;;;17.88;3.08;;;5.80;91.60;;;;;;5073630;28;20127;-69
2021/03/14 01:25:23;;;;;;;22.55;3.70;;;5.80;91.40;;;;;;5073105;28;20075;-69
2021/03/14 01:27:49;;;;;;;30.27;4.63;;;5.90;91.40;;;;;;5073646;28;20083;-69
2021/03/14 01:30:17;;;;;;;16.58;3.10;;;5.90;91.40;;;;;;5073279;28;20559;-69
2021/03/14 01:32:45;;;;;;;19.83;3.92;;;5.80;91.60;;;;;;5073940;28;20044;-69
2021/03/14 01:35:12;;;;;;;21.70;4.07;;;5.80;91.80;;;;;;5073025;28;20123;-69
2021/03/14 01:37:38;;;;;;;21.40;3.53;;;5.80;91.70;;;;;;5073365;28;20036;-69
2021/03/14 01:40:05;;;;;;;16.00;4.22;;;5.80;91.60;;;;;;5072756;28;20094;-69
2021/03/14 01:42:32;;;;;;;19.15;4.20;;;5.80;91.80;;;;;;5073172;28;20036;-69
2021/03/14 01:44:58;;;;;;;23.88;3.53;;;5.80;91.80;;;;;;5072945;28;20036;-69
2021/03/14 01:47:36;;;;;;;17.83;3.33;;;5.80;91.80;;;;;;5055827;28;20480;-69
2021/03/14 01:50:07;;;;;;;16.35;3.17;;;5.80;91.60;;;;;;5073090;28;20037;-69
2021/03/14 01:52:34;;;;;;;22.77;3.03;;;5.80;91.60;;;;;;5073480;28;20043;-69
2021/03/14 01:55:01;;;;;;;16.48;3.70;;;5.90;91.70;;;;;;5072877;28;20043;-69
2021/03/14 01:57:27;;;;;;;20.88;4.10;;;5.90;91.70;;;;;;5072967;28;20514;-69
2021/03/14 01:59:53;;;;;;;15.80;3.15;;;5.90;91.70;;;;;;5072854;28;20052;-69
2021/03/14 02:02:20;;;;;;;19.88;2.95;;;5.90;91.70;;;;;;5073178;28;20388;-69
2021/03/14 02:04:46;;;;;;;14.38;3.13;;;5.90;91.60;;;;;;5072905;28;20033;-69
2021/03/14 02:07:13;;;;;;;14.43;2.83;;;5.90;91.60;;;;;;5072962;28;20040;-69
2021/03/14 02:09:40;;;;;;;18.33;3.25;;;5.90;91.40;;;;;;5073108;28;20041;-69
2021/03/14 02:12:09;;;;;;;16.92;3.13;;;5.90;91.50;;;;;;5072903;28;20036;-69
2021/03/14 02:14:38;;;;;;;18.23;3.17;;;5.90;91.30;;;;;;5073319;28;20051;-69
2021/03/14 02:17:07;;;;;;;14.85;3.35;;;5.90;91.50;;;;;;5073084;28;20051;-69
2021/03/14 02:19:36;;;;;;;19.77;3.65;;;5.90;91.80;;;;;;5073026;28;20098;-69
2021/03/14 02:22:03;;;;;;;19.02;4.88;;;5.90;91.60;;;;;;5073235;28;20039;-69
2021/03/14 02:24:44;;;;;;;14.95;3.13;;;5.90;91.70;;;;;;5073182;28;20033;-69
2021/03/14 02:27:11;;;;;;;16.73;3.50;;;5.90;91.70;;;;;;5072850;28;20043;-69
2021/03/14 02:29:40;;;;;;;17.85;3.22;;;5.80;91.80;;;;;;5072716;28;20041;-69
2021/03/14 02:32:08;;;;;;;13.82;3.08;;;5.90;91.70;;;;;;5072727;28;20036;-69
2021/03/14 02:34:36;;;;;;;23.20;3.00;;;5.80;91.80;;;;;;5072450;28;20049;-70
2021/03/14 02:37:08;;;;;;;14.95;3.28;;;5.90;91.60;;;;;;5072574;28;20033;-70
2021/03/14 02:39:36;;;;;;;22.00;3.55;;;5.90;91.40;;;;;;5072621;28;20052;-69
2021/03/14 02:42:05;;;;;;;23.05;3.42;;;5.90;91.50;;;;;;5072688;28;20450;-69
2021/03/14 02:44:34;;;;;;;15.05;2.95;;;5.90;91.60;;;;;;5072670;28;20040;-69
2021/03/14 02:47:01;;;;;;;13.57;3.05;;;5.90;91.40;;;;;;5072940;28;20041;-69
2021/03/14 02:49:28;;;;;;;15.25;3.17;;;5.80;91.50;;;;;;5072731;28;20044;-69
2021/03/14 02:51:54;;;;;;;29.38;3.95;;;5.90;91.50;;;;;;5075820;28;20048;-69
2021/03/14 02:54:21;;;;;;;17.95;3.65;;;5.90;91.60;;;;;;5076281;28;20048;-69
2021/03/14 02:56:48;;;;;;;19.52;3.75;;;5.80;91.30;;;;;;5076091;28;20460;-69
2021/03/14 02:59:22;;;;;;;20.05;3.58;;;5.90;91.30;;;;;;5076150;28;20119;-69
2021/03/14 03:01:50;;;;;;;16.50;3.03;;;5.90;91.20;;;;;;5076639;28;20044;-69
2021/03/14 03:04:18;;;;;;;17.77;2.88;;;5.90;91.20;;;;;;5076039;28;20051;-69
2021/03/14 03:06:45;;;;;;;22.60;3.40;;;5.90;91.10;;;;;;5075738;28;20075;-69
2021/03/14 03:09:12;;;;;;;18.65;4.60;;;5.90;91.00;;;;;;5075976;28;20039;-69
2021/03/14 03:11:40;;;;;;;15.90;3.00;;;5.90;91.20;;;;;;5075733;28;20479;-69
2021/03/14 03:14:11;;;;;;;19.75;3.45;;;5.90;91.10;;;;;;5075858;28;20039;-69
2021/03/14 03:16:38;;;;;;;13.07;3.40;;;5.90;91.10;;;;;;5075687;28;20507;-69
2021/03/14 03:19:04;;;;;;;17.25;3.28;;;5.90;91.00;;;;;;5075788;28;20040;-69
2021/03/14 03:21:31;;;;;;;25.58;3.47;;;6.00;90.90;;;;;;5075922;28;20040;-69
2021/03/14 03:23:57;;;;;;;24.08;4.03;;;5.90;91.10;;;;;;5075960;28;20046;-69
2021/03/14 03:26:22;;;;;;;23.27;3.78;;;5.90;91.10;;;;;;5075328;28;20068;-69
2021/03/14 03:28:49;;;;;;;14.75;2.92;;;5.90;91.20;;;;;;5076232;28;20047;-69
2021/03/14 03:31:15;;;;;;;22.27;3.95;;;5.90;91.10;;;;;;5075562;28;20067;-69
2021/03/14 03:33:41;;;;;;;23.10;3.47;;;5.80;91.20;;;;;;5075451;28;20044;-69
2021/03/14 03:36:07;;;;;;;18.00;3.88;;;5.80;91.20;;;;;;5075368;28;20056;-69
2021/03/14 03:38:34;;;;;;;16.10;3.88;;;5.80;91.00;;;;;;5075406;28;20064;-69
2021/03/14 03:41:00;;;;;;;20.55;3.85;;;5.80;91.10;;;;;;5075675;28;20040;-69
2021/03/14 03:43:31;;;;;;;21.90;3.67;;;5.80;91.00;;;;;;5075454;28;20033;-69
2021/03/14 03:46:01;;;;;;;22.63;4.28;;;5.80;91.00;;;;;;5074917;28;20047;-69
2021/03/14 03:48:33;;;;;;;15.60;3.85;;;5.80;90.90;;;;;;5075345;28;20060;-69
2021/03/14 03:51:00;;;;;;;19.55;5.07;;;5.70;91.10;;;;;;5075711;28;20044;-69
2021/03/14 03:53:27;;;;;;;20.95;2.75;;;5.70;91.00;;;;;;5075608;28;20044;-69
2021/03/14 03:55:55;;;;;;;20.17;3.33;;;5.70;91.10;;;;;;5074669;28;20064;-69
2021/03/14 03:58:23;;;;;;;17.23;3.65;;;5.60;91.20;;;;;;5075254;28;20052;-69
2021/03/14 04:00:50;;;;;;;21.15;4.05;;;5.60;91.30;;;;;;5074970;28;20045;-69
2021/03/14 04:03:17;;;;;;;19.95;3.90;;;5.60;91.40;;;;;;5073977;28;20043;-69
2021/03/14 04:05:43;;;;;;;19.92;3.22;;;5.70;91.20;;;;;;5074896;28;20090;-69
2021/03/14 04:08:10;;;;;;;20.00;4.03;;;5.60;91.40;;;;;;5075457;28;20036;-69
2021/03/14 04:10:36;;;;;;;25.05;4.75;;;5.60;91.50;;;;;;5074790;28;20042;-69
2021/03/14 04:13:03;;;;;;;19.02;4.38;;;5.60;91.40;;;;;;5074660;28;20047;-69
2021/03/14 04:15:32;;;;;;;19.33;4.15;;;5.60;91.40;;;;;;5074360;28;20086;-69
2021/03/14 04:17:59;;;;;;;15.73;4.28;;;5.60;91.50;;;;;;5074893;28;20376;-69
2021/03/14 04:20:33;;;;;;;16.92;4.03;;;5.60;91.40;;;;;;5074815;28;20048;-69
2021/03/14 04:23:03;;;;;;;15.43;3.47;;;5.50;91.40;;;;;;5074818;28;20040;-69
2021/03/14 04:25:30;;;;;;;21.35;3.97;;;5.60;91.60;;;;;;5074347;28;20478;-69
2021/03/14 04:27:58;;;;;;;19.80;4.25;;;5.60;91.40;;;;;;5075100;28;20090;-69
2021/03/14 04:30:25;;;;;;;17.58;4.90;;;5.50;91.50;;;;;;5074358;28;20047;-69
2021/03/14 04:32:52;;;;;;;14.38;3.22;;;5.60;91.50;;;;;;5074397;28;20413;-69
2021/03/14 04:35:18;;;;;;;20.55;4.15;;;5.50;91.60;;;;;;5074144;28;20550;-69
2021/03/14 04:37:45;;;;;;;13.82;3.15;;;5.50;91.60;;;;;;5074474;28;20492;-69
2021/03/14 04:40:12;;;;;;;18.25;3.92;;;5.50;91.70;;;;;;5074183;28;20045;-69
2021/03/14 04:42:40;;;;;;;16.95;3.25;;;5.50;91.70;;;;;;5074870;28;20085;-69
2021/03/14 04:45:07;;;;;;;17.60;3.45;;;5.50;91.80;;;;;;5073653;28;20037;-69
2021/03/14 04:47:33;;;;;;;18.73;3.40;;;5.40;91.90;;;;;;5073930;28;20114;-69
2021/03/14 04:49:59;;;;;;;22.92;4.18;;;5.40;92.00;;;;;;5074032;28;20082;-69
2021/03/14 04:52:25;;;;;;;23.65;4.85;;;5.40;92.00;;;;;;5074033;28;20464;-69
2021/03/14 04:54:52;;;;;;;26.58;4.20;;;5.40;92.10;;;;;;5074059;28;20044;-69
2021/03/14 04:57:19;;;;;;;20.10;5.07;;;5.40;92.10;;;;;;5073853;28;20033;-69
2021/03/14 04:59:47;;;;;;;20.15;4.15;;;5.30;92.20;;;;;;5073964;28;20507;-69
2021/03/14 05:02:14;;;;;;;26.23;4.07;;;5.30;92.30;;;;;;5074099;28;20083;-69
2021/03/14 05:04:44;;;;;;;12.85;3.60;;;5.30;92.40;;;;;;5073691;28;20040;-69
2021/03/14 05:07:14;;;;;;;27.50;7.00;;;5.30;92.40;;;;;;5073749;28;20036;-69
2021/03/14 05:09:41;;;;;;;18.80;4.05;;;5.30;92.50;;;;;;5074260;28;20086;-69
2021/03/14 05:12:08;;;;;;;34.45;5.05;;;5.30;92.50;;;;;;5073741;28;20049;-69
2021/03/14 05:14:37;;;;;;;20.25;4.53;;;5.20;92.60;;;;;;5073020;28;20044;-69
2021/03/14 05:17:04;;;;;;;19.83;4.80;;;5.20;92.60;;;;;;5073693;28;20040;-69
2021/03/14 05:19:33;;;;;;;21.67;4.63;;;5.20;92.60;;;;;;5073985;28;20028;-69
2021/03/14 05:21:59;;;;;;;25.77;5.70;;;5.10;92.70;;;;;;5074346;28;20467;-69
2021/03/14 05:24:27;;;;;;;22.70;5.22;;;5.10;92.70;;;;;;5073358;28;20037;-69
2021/03/14 05:26:56;;;;;;;24.00;6.22;;;5.10;92.70;;;;;;5074159;28;20119;-69
2021/03/14 05:29:24;;;;;;;27.83;5.35;;;5.10;92.80;;;;;;5073540;28;20040;-69
2021/03/14 05:31:50;;;;;;;32.90;7.68;;;5.10;92.90;;;;;;5074040;28;20071;-69
2021/03/14 05:34:17;;;;;;;25.38;5.32;;;5.10;92.90;;;;;;5073939;28;20036;-70
2021/03/14 05:36:45;;;;;;;20.08;4.55;;;5.00;92.90;;;;;;5073022;28;20047;-69
2021/03/14 05:39:11;;;;;;;28.70;5.28;;;5.00;93.00;;;;;;5073343;28;20115;-69
2021/03/14 05:41:38;;;;;;;28.70;5.40;;;5.00;93.00;;;;;;5073266;28;20064;-69
2021/03/14 05:44:04;;;;;;;28.95;6.07;;;5.00;92.90;;;;;;5073550;28;20120;-69
2021/03/14 05:46:31;;;;;;;23.20;5.38;;;5.00;93.00;;;;;;5073282;28;20040;-69
2021/03/14 05:48:56;;;;;;;21.42;5.57;;;5.00;93.10;;;;;;5073328;28;20105;-69
2021/03/14 05:51:29;;;;;;;27.95;4.93;;;5.00;93.10;;;;;;5073605;28;20521;-69
2021/03/14 05:53:56;;;;;;;20.77;4.60;;;5.00;93.10;;;;;;5073693;28;20041;-69
2021/03/14 05:56:23;;;;;;;26.50;4.45;;;5.10;93.20;;;;;;5072681;28;20121;-69
2021/03/14 05:58:50;;;;;;;23.90;4.78;;;5.10;93.10;;;;;;5073254;28;20094;-69
2021/03/14 06:01:19;;;;;;;29.85;5.68;;;5.10;93.10;;;;;;5073649;28;20132;-69
2021/03/14 06:03:45;;;;;;;22.02;4.20;;;5.20;93.10;;;;;;5073803;28;20383;-69
2021/03/14 06:06:11;;;;;;;23.23;4.55;;;5.20;93.00;;;;;;5072655;28;20090;-69
2021/03/14 06:08:38;;;;;;;23.27;5.03;;;5.20;93.10;;;;;;5073207;28;20040;-69
2021/03/14 06:11:05;;;;;;;25.92;5.90;;;5.20;93.40;;;;;;5072809;28;20110;-69
2021/03/14 06:13:32;;;;;;;14.65;5.03;;;5.30;93.10;;;;;;5073357;28;20036;-69
2021/03/14 06:15:58;;;;;;;21.85;4.95;;;5.30;93.10;;;;;;5072516;28;20488;-69
2021/03/14 06:18:26;;;;;;;21.23;5.38;;;5.30;93.10;;;;;;5073558;28;20044;-69
2021/03/14 06:20:53;;;;;;;26.15;5.47;;;5.30;93.10;;;;;;5073169;28;20072;-69
2021/03/14 06:23:21;;;;;;;23.98;5.25;;;5.30;93.00;;;;;;5072732;28;20041;-69
2021/03/14 06:25:52;;;;;;;21.58;5.40;;;5.30;93.00;;;;;;5073764;28;20032;-69
2021/03/14 06:28:34;;;;;;;23.30;4.57;;;5.40;92.90;;;;;;5077280;28;20044;-69
2021/03/14 06:31:19;;;;;;;19.30;4.90;;;5.40;92.90;;;;;;5076721;28;20045;-69
2021/03/14 06:33:45;;;;;;;19.15;5.32;;;5.40;92.80;;;;;;5077139;28;20041;-69
2021/03/14 06:36:15;;;;;;;26.90;6.13;;;5.40;92.80;;;;;;5076649;28;20032;-69
2021/03/14 06:38:41;;;;;;;17.02;5.25;;;5.40;92.90;;;;;;5076311;28;20086;-69
2021/03/14 06:41:06;;;;;;;20.67;5.75;;;5.40;92.80;;;;;;5077018;28;20105;-69
2021/03/14 06:43:40;;;;;;;26.77;5.75;;;5.50;92.60;;;;;;5059142;28;20476;-69
2021/03/14 06:46:22;;;;;;;23.05;4.20;;;5.50;92.50;;;;;;5076333;28;20411;-69
2021/03/14 06:49:03;;;;;;;25.33;5.03;;;5.60;92.50;;;;;;5076727;28;20124;-69
2021/03/14 06:51:43;;;;;;;19.40;5.38;;;5.60;92.60;;;;;;5058642;28;20036;-69
2021/03/14 06:54:19;;;;;;;23.55;5.70;;;5.60;92.60;;;;;;5076266;28;20444;-69
2021/03/14 06:57:23;;;;;;;18.63;4.63;;;5.70;92.40;;;;;;5076062;28;20106;-69
2021/03/14 06:59:53;;;;;;;18.20;4.10;;;5.80;92.10;;;;;;5076597;28;20040;-69
2021/03/14 07:02:27;;;;;;;23.55;4.38;;;5.80;92.30;;;;;;5076122;28;20360;-69
2021/03/14 07:04:58;;;;;;;20.52;4.78;;;5.80;92.10;;;;;;5075783;28;20041;-69
2021/03/14 07:07:33;;;;;;;22.75;4.85;;;5.90;92.10;;;;;;5076240;28;20048;-69
2021/03/14 07:10:04;;;;;;;18.27;5.32;;;6.00;92.20;;;;;;5076399;28;20046;-69
2021/03/14 07:12:31;;;;;;;22.95;5.32;;;6.00;92.00;;;;;;5076448;28;20084;-69
2021/03/14 07:15:09;;;;;;;16.65;4.57;;;6.10;92.10;;;;;;5075442;28;20059;-69
2021/03/14 07:17:36;;;;;;;26.27;5.18;;;6.20;91.90;;;;;;5076218;28;20048;-69
2021/03/14 07:20:17;;;;;;;17.63;5.03;;;6.20;91.70;;;;;;5075686;28;20090;-69
2021/03/14 07:23:00;;;;;;;16.90;4.32;;;6.20;91.70;;;;;;5076263;28;20036;-69
2021/03/14 07:25:26;;;;;;;18.87;4.43;;;6.10;91.80;;;;;;5075417;28;20036;-69
2021/03/14 07:27:53;;;;;;;12.88;3.78;;;6.20;91.70;;;;;;5076165;28;20283;-69
2021/03/14 07:30:21;;;;;;;16.50;3.95;;;6.20;91.60;;;;;;5075768;28;20041;-69
2021/03/14 07:32:47;;;;;;;16.80;4.00;;;6.20;91.50;;;;;;5076088;28;20051;-69
2021/03/14 07:35:13;;;;;;;19.27;4.40;;;6.20;91.50;;;;;;5075358;28;20071;-69
2021/03/14 07:37:42;;;;;;;15.63;4.57;;;6.40;91.40;;;;;;5075438;28;20064;-69
2021/03/14 07:40:18;;;;;;;19.08;3.80;;;6.70;91.20;;;;;;5075552;28;20071;-69
2021/03/14 07:42:44;;;;;;;18.00;3.78;;;6.70;90.70;;;;;;5075470;28;20039;-69
2021/03/14 07:45:13;;;;;;;16.83;3.20;;;6.70;90.50;;;;;;5075212;28;20045;-69
2021/03/14 07:47:40;;;;;;;12.43;3.70;;;6.90;90.40;;;;;;5075676;28;20058;-69
2021/03/14 07:50:18;;;;;;;15.27;3.50;;;7.00;90.10;;;;;;5075113;28;20464;-69
2021/03/14 07:52:45;;;;;;;15.20;3.83;;;7.10;90.10;;;;;;5075413;28;20044;-70
2021/03/14 07:55:17;;;;;;;14.20;3.35;;;7.20;90.00;;;;;;5075026;28;20039;-70
2021/03/14 07:57:44;;;;;;;12.32;3.33;;;7.30;89.80;;;;;;5075706;28;20044;-70
2021/03/14 08:00:27;;;;;;;12.75;2.97;;;7.40;88.60;;;;;;5075001;28;20400;-70
2021/03/14 08:02:58;;;;;;;16.08;3.38;;;7.30;88.80;;;;;;5075258;28;20029;-70
2021/03/14 08:05:42;;;;;;;12.13;2.83;;;7.30;88.40;;;;;;5074687;28;20090;-70
2021/03/14 08:08:28;;;;;;;14.95;4.35;;;7.60;88.50;;;;;;5074814;28;20036;-70
2021/03/14 08:10:54;;;;;;;12.95;3.95;;;7.50;88.00;;;;;;5056831;28;20048;-70
2021/03/14 08:13:29;;;;;;;15.55;4.70;;;7.50;88.00;;;;;;5074915;28;20036;-70
2021/03/14 08:16:01;;;;;;;16.77;2.85;;;7.70;87.70;;;;;;5074336;28;20106;-70
2021/03/14 08:18:47;;;;;;;15.52;3.53;;;7.60;86.90;;;;;;5075140;28;20048;-70
2021/03/14 08:21:37;;;;;;;18.77;3.45;;;7.80;86.40;;;;;;5074736;28;20055;-69
2021/03/14 08:24:03;;;;;;;12.63;3.30;;;8.10;86.10;;;;;;5062535;28;20431;-70
2021/03/14 08:26:32;;;;;;;12.27;2.70;;;8.30;85.70;;;;;;5074570;28;20047;-70
2021/03/14 08:29:09;;;;;;;10.93;2.83;;;8.40;85.20;;;;;;5074625;28;20119;-70
2021/03/14 08:31:47;;;;;;;11.45;2.90;;;8.60;84.00;;;;;;5074246;28;20036;-70
2021/03/14 08:34:40;;;;;;;15.32;3.03;;;8.80;83.50;;;;;;5074548;28;20047;-70
2021/03/14 08:37:22;;;;;;;7.85;2.72;;;8.80;82.70;;;;;;5074372;28;20052;-71
2021/03/14 08:39:47;;;;;;;14.10;3.42;;;9.00;82.50;;;;;;5074339;28;20507;-70
2021/03/14 08:42:13;;;;;;;8.32;2.33;;;9.10;82.00;;;;;;5074510;28;20032;-69
2021/03/14 08:44:43;;;;;;;10.98;2.75;;;9.20;81.60;;;;;;5073888;28;20350;-70
2021/03/14 08:47:15;;;;;;;9.57;2.42;;;9.30;81.60;;;;;;5074277;28;20072;-70
2021/03/14 08:49:46;;;;;;;15.85;2.60;;;9.30;80.60;;;;;;5073887;28;20067;-70
2021/03/14 08:52:13;;;;;;;14.57;3.58;;;9.40;80.10;;;;;;5074516;28;20047;-72
2021/03/14 08:54:43;;;;;;;14.90;3.00;;;9.40;79.80;;;;;;5072990;28;20122;-70
2021/03/14 08:57:13;;;;;;;8.57;2.20;;;9.40;79.60;;;;;;5073949;28;20036;-70
2021/03/14 08:59:50;;;;;;;13.57;1.92;;;9.50;78.90;;;;;;5074162;28;20033;-69
2021/03/14 09:02:36;;;;;;;11.18;2.17;;;9.40;78.00;;;;;;5056032;28;20060;-69
2021/03/14 09:05:19;;;;;;;11.15;2.28;;;9.50;78.50;;;;;;5055678;28;20476;-69
2021/03/14 09:07:58;;;;;;;9.88;2.83;;;9.50;78.90;;;;;;5073638;28;20047;-70
2021/03/14 09:10:23;;;;;;;11.63;2.40;;;9.50;79.30;;;;;;5073906;28;20238;-70
2021/03/14 09:13:00;;;;;;;6.03;1.83;;;9.40;78.50;;;;;;5074277;28;20068;-70
2021/03/14 09:15:26;;;;;;;18.52;2.45;;;9.30;77.40;;;;;;5073172;28;20127;-70
2021/03/14 09:17:56;;;;;;;8.15;1.80;;;9.10;78.10;;;;;;5073471;28;20115;-70
2021/03/14 09:20:22;;;;;;;10.02;2.17;;;9.10;78.00;;;;;;5073521;28;20044;-69
2021/03/14 09:22:48;;;;;;;9.98;2.25;;;9.20;78.50;;;;;;5073623;28;20379;-69
2021/03/14 09:25:14;;;;;;;11.00;2.63;;;9.10;78.80;;;;;;5073076;28;20054;-70
2021/03/14 09:27:41;;;;;;;13.18;2.20;;;9.00;78.00;;;;;;5073835;28;20033;-69
2021/03/14 09:30:07;;;;;;;9.63;2.20;;;8.90;77.90;;;;;;5073195;28;20115;-70
2021/03/14 09:32:44;;;;;;;7.65;2.42;;;8.80;77.70;;;;;;5073778;28;20440;-69
2021/03/14 09:35:20;;;;;;;5.03;1.80;;;8.70;78.30;;;;;;5072930;28;20428;-70
2021/03/14 09:38:00;;;;;;;5.28;2.38;;;8.90;78.30;;;;;;5073147;28;20044;-70
2021/03/14 09:40:32;;;;;;;10.10;2.00;;;9.10;80.20;;;;;;5073364;28;20044;-69
2021/03/14 09:43:06;;;;;;;6.93;2.08;;;9.10;78.70;;;;;;5073273;28;20131;-69
2021/03/14 09:45:32;;;;;;;8.77;2.20;;;9.30;78.90;;;;;;5072722;28;20079;-70
2021/03/14 09:48:08;;;;;;;7.30;2.65;;;9.20;76.60;;;;;;5073084;28;20064;-69
2021/03/14 09:50:41;;;;;;;4.85;1.90;;;9.20;78.10;;;;;;5072865;28;20068;-69
2021/03/14 09:53:08;;;;;;;7.88;2.50;;;9.40;77.80;;;;;;5073056;28;20086;-70
2021/03/14 09:55:35;;;;;;;13.65;2.35;;;9.40;77.40;;;;;;5072550;28;20127;-70
2021/03/14 09:58:02;;;;;;;9.70;2.40;;;9.20;77.50;;;;;;5073003;28;20480;-70
2021/03/14 10:00:32;;;;;;;9.80;2.00;;;9.00;77.60;;;;;;5073582;28;20484;-70
2021/03/14 10:03:04;;;;;;;8.70;1.83;;;8.80;78.40;;;;;;5077538;28;20116;-70
2021/03/14 10:05:41;;;;;;;7.85;2.10;;;8.80;78.90;;;;;;5076566;28;20527;-70
2021/03/14 10:08:07;;;;;;;7.80;1.77;;;8.80;78.90;;;;;;5077348;28;20116;-70
2021/03/14 10:10:36;;;;;;;12.10;2.20;;;8.80;78.80;;;;;;5076765;28;20044;-70
2021/03/14 10:13:05;;;;;;;7.20;1.90;;;8.90;78.90;;;;;;5077439;28;20080;-69
2021/03/14 10:15:31;;;;;;;4.93;2.00;;;9.00;79.10;;;;;;5076720;28;20076;-69
2021/03/14 10:17:57;;;;;;;8.02;2.25;;;9.00;78.80;;;;;;5077376;28;20341;-69
2021/03/14 10:20:23;;;;;;;4.53;1.58;;;9.10;78.40;;;;;;5058981;28;20045;-70
2021/03/14 10:23:06;;;;;;;7.88;2.00;;;9.20;78.40;;;;;;5076907;28;20047;-70
2021/03/14 10:25:38;;;;;;;8.48;2.15;;;9.40;77.70;;;;;;5076536;28;20060;-69
2021/03/14 10:28:11;;;;;;;6.80;2.33;;;9.30;77.50;;;;;;5076818;28;20040;-69
2021/03/14 10:30:41;;;;;;;10.30;2.45;;;9.30;77.00;;;;;;5076581;28;20091;-69
2021/03/14 10:33:15;;;;;;;5.55;1.80;;;9.20;76.50;;;;;;5077102;28;20090;-69
2021/03/14 10:35:42;;;;;;;7.40;2.13;;;9.30;76.70;;;;;;5075976;28;20039;-68
2021/03/14 10:38:22;;;;;;;13.18;2.63;;;9.30;77.40;;;;;;5076615;28;20071;-70
2021/03/14 10:40:49;;;;;;;10.65;1.67;;;9.30;76.50;;;;;;5076640;28;20051;-68
2021/03/14 10:43:21;;;;;;;12.30;2.22;;;9.20;76.70;;;;;;5076606;28;20051;-68
2021/03/14 10:45:47;;;;;;;5.88;1.50;;;9.40;76.70;;;;;;5076057;28;20518;-69
2021/03/14 10:48:13;;;;;;;8.43;2.20;;;9.50;76.90;;;;;;5076795;28;20044;-70
2021/03/14 10:50:40;;;;;;;7.65;2.42;;;9.60;77.40;;;;;;5058399;28;20069;-70
2021/03/14 10:53:09;;;;;;;7.95;1.80;;;9.60;76.10;;;;;;5076812;28;20116;-70
2021/03/14 10:55:36;;;;;;;14.40;2.25;;;9.70;76.00;;;;;;5075939;28;20040;-71
2021/03/14 10:58:11;;;;;;;11.98;2.20;;;9.90;75.80;;;;;;5058333;28;20471;-70
2021/03/14 11:00:42;;;;;;;12.40;2.25;;;9.90;76.10;;;;;;5041802;28;20052;-70
2021/03/14 11:03:13;;;;;;;8.07;1.90;;;10.00;76.70;;;;;;5076441;28;20058;-70
2021/03/14 11:05:42;;;;;;;8.27;2.17;;;10.00;74.40;;;;;;5075503;28;20071;-70
2021/03/14 11:08:08;;;;;;;8.10;1.75;;;10.00;73.70;;;;;;5076064;28;20476;-69
2021/03/14 11:10:34;;;;;;;10.57;3.40;;;9.80;74.00;;;;;;5075851;28;20059;-70
2021/03/14 11:13:13;;;;;;;8.05;2.00;;;9.60;73.50;;;;;;5075596;28;20036;-70
2021/03/14 11:15:39;;;;;;;10.95;1.60;;;9.30;73.80;;;;;;5075404;28;20388;-70
2021/03/14 11:18:05;;;;;;;10.38;2.22;;;9.10;74.90;;;;;;5076392;28;20149;-70
2021/03/14 11:20:33;;;;;;;6.82;1.83;;;9.10;73.90;;;;;;5076467;28;20044;-69
2021/03/14 11:23:01;;;;;;;5.05;1.80;;;9.10;73.40;;;;;;5076143;28;20036;-68
2021/03/14 11:25:27;;;;;;;6.65;2.10;;;9.00;73.60;;;;;;5075348;28;20063;-70
2021/03/14 11:27:55;;;;;;;5.78;1.83;;;9.00;74.50;;;;;;5076038;28;20532;-70
2021/03/14 11:30:25;;;;;;;7.35;2.00;;;9.10;74.70;;;;;;5057731;28;20116;-70
2021/03/14 11:32:52;;;;;;;5.00;1.42;;;9.30;74.60;;;;;;5075567;28;20068;-70
2021/03/14 11:35:18;;;;;;;10.05;2.00;;;9.60;75.60;;;;;;5075214;28;20115;-70
2021/03/14 11:37:44;;;;;;;4.63;1.42;;;9.90;75.40;;;;;;5075173;28;20043;-70
2021/03/14 11:40:11;;;;;;;6.93;1.92;;;10.10;73.60;;;;;;5075366;28;20036;-70
2021/03/14 11:42:37;;;;;;;11.05;1.70;;;10.10;74.00;;;;;;5075250;28;20476;-70
2021/03/14 11:45:05;;;;;;;6.13;1.95;;;10.10;73.30;;;;;;5075388;28;20040;-70
2021/03/14 11:47:31;;;;;;;8.27;1.88;;;10.00;71.60;;;;;;5075758;28;20045;-69
2021/03/14 11:49:56;;;;;;;10.43;2.00;;;9.90;71.10;;;;;;5075482;28;20051;-70
2021/03/14 11:52:22;;;;;;;8.05;1.77;;;9.80;72.30;;;;;;5075283;28;20089;-70
2021/03/14 11:54:48;;;;;;;12.77;2.45;;;9.60;72.90;;;;;;5075006;28;20041;-70
2021/03/14 11:57:13;;;;;;;11.88;2.55;;;9.40;73.40;;;;;;5075572;28;20086;-69
2021/03/14 11:59:39;;;;;;;7.40;2.55;;;9.30;74.20;;;;;;5075586;28;20112;-69
2021/03/14 12:02:06;;;;;;;9.70;2.30;;;9.40;74.20;;;;;;5075675;28;20079;-69
2021/03/14 12:04:31;;;;;;;9.00;2.15;;;9.40;74.30;;;;;;5074856;28;20040;-69
2021/03/14 12:06:58;;;;;;;4.22;1.85;;;9.50;74.60;;;;;;5075471;28;20051;-68
2021/03/14 12:09:24;;;;;;;9.57;1.80;;;9.60;74.50;;;;;;5057593;28;20036;-68
2021/03/14 12:11:49;;;;;;;6.10;1.65;;;9.70;74.40;;;;;;5057016;28;20090;-68
2021/03/14 12:14:15;;;;;;;7.15;1.67;;;9.70;74.20;;;;;;5074758;28;20052;-69
2021/03/14 12:16:41;;;;;;;9.15;1.65;;;9.70;74.80;;;;;;5074407;28;20460;-69
2021/03/14 12:19:06;;;;;;;11.75;2.75;;;9.40;73.90;;;;;;5074632;28;20036;-68
2021/03/14 12:21:33;;;;;;;11.55;2.35;;;9.30;74.50;;;;;;5074613;28;20045;-68
2021/03/14 12:23:59;;;;;;;9.27;2.45;;;9.20;74.90;;;;;;5073565;28;20032;-68
2021/03/14 12:26:25;;;;;;;9.27;2.38;;;9.20;76.50;;;;;;5074025;28;20397;-68
2021/03/14 12:28:51;;;;;;;16.95;2.55;;;9.20;75.40;;;;;;5075096;28;20040;-68
2021/03/14 12:31:17;;;;;;;8.80;1.90;;;9.20;75.70;;;;;;5074797;28;20032;-68
2021/03/14 12:33:44;;;;;;;12.38;1.90;;;9.10;74.70;;;;;;5074260;28;20041;-68
2021/03/14 12:36:11;;;;;;;10.35;2.28;;;9.10;74.40;;;;;;5055890;28;20033;-68
2021/03/14 12:38:37;;;;;;;7.10;1.70;;;9.20;75.60;;;;;;5074166;28;20068;-68
2021/03/14 12:41:03;;;;;;;7.30;1.83;;;9.20;75.10;;;;;;5074733;28;20078;-68
2021/03/14 12:43:28;;;;;;;11.02;2.22;;;9.20;73.40;;;;;;5056948;28;20469;-68
2021/03/14 12:45:54;;;;;;;9.63;2.20;;;9.30;74.00;;;;;;5073658;28;20041;-69
2021/03/14 12:48:20;;;;;;;7.40;2.00;;;9.50;73.20;;;;;;5074203;28;20040;-69
2021/03/14 12:50:46;;;;;;;12.75;1.60;;;9.60;73.30;;;;;;5074586;28;20044;-69
2021/03/14 12:53:12;;;;;;;7.20;2.30;;;9.70;72.50;;;;;;5073943;28;20101;-69
2021/03/14 12:55:38;;;;;;;6.45;2.08;;;9.80;70.10;;;;;;5073593;28;20547;-69